createdAt,value
2018-01-08T00:03:30.745Z,1.63
2018-01-08T00:08:32.059Z,1.64
2018-01-08T00:13:33.395Z,1.78
2018-01-08T00:18:34.743Z,1.71
2018-01-08T00:23:36.073Z,1.66
2018-01-08T00:28:38.113Z,1.40
2018-01-08T00:33:39.552Z,1.44
2018-01-08T00:38:40.865Z,1.40
2018-01-08T00:43:42.172Z,1.35
2018-01-08T00:48:43.497Z,1.49
2018-01-08T00:53:44.809Z,1.30
2018-01-08T00:58:46.219Z,1.42
2018-01-08T01:03:48.304Z,1.50
2018-01-08T01:08:49.634Z,1.60
2018-01-08T01:13:51.044Z,1.59
2018-01-08T01:18:52.711Z,1.51
2018-01-08T01:23:54.842Z,1.48
2018-01-08T01:28:56.169Z,1.66
2018-01-08T01:33:57.551Z,1.53
2018-01-08T01:38:58.871Z,1.70
2018-01-08T01:44:00.968Z,1.88
2018-01-08T01:49:20.606Z,1.89
2018-01-08T01:54:22.695Z,2.04
2018-01-08T01:59:24.060Z,2.03
2018-01-08T02:04:25.386Z,1.96
2018-01-08T02:09:26.917Z,1.76
2018-01-08T02:14:29.058Z,1.89
2018-01-08T02:19:30.423Z,1.87
2018-01-08T02:24:31.763Z,1.86
2018-01-08T02:29:33.151Z,1.88
2018-01-08T02:34:34.451Z,1.80
2018-01-08T02:39:36.579Z,1.80
2018-01-08T02:44:38.066Z,1.90
2018-01-08T02:49:40.102Z,1.79
2018-01-08T02:54:41.503Z,1.80
2018-01-08T02:59:42.858Z,1.92
2018-01-08T03:04:44.163Z,1.76
2018-01-08T03:09:45.505Z,1.71
2018-01-08T03:14:46.903Z,1.79
2018-01-08T03:19:48.960Z,1.70
2018-01-08T03:24:50.314Z,1.75
2018-01-08T03:29:52.431Z,1.72
2018-01-08T03:34:53.800Z,1.68
2018-01-08T03:39:55.855Z,1.80
2018-01-08T03:44:57.208Z,1.70
2018-01-08T03:49:59.290Z,1.82
2018-01-08T03:55:00.628Z,1.70
2018-01-08T04:00:01.972Z,1.68
2018-01-08T04:05:03.327Z,1.63
2018-01-08T04:10:04.663Z,1.72
2018-01-08T04:15:06.835Z,1.70
2018-01-08T04:20:08.172Z,1.82
2018-01-08T04:25:10.237Z,1.77
2018-01-08T04:30:11.707Z,1.83
2018-01-08T04:35:13.430Z,2.06
2018-01-08T04:40:14.780Z,1.83
2018-01-08T04:45:16.094Z,1.94
2018-01-08T04:50:17.407Z,1.81
2018-01-08T04:55:18.780Z,1.79
2018-01-08T05:00:20.082Z,1.74
2018-01-08T05:05:21.413Z,1.84
2018-01-08T05:10:23.080Z,1.95
2018-01-08T05:15:25.248Z,1.92
2018-01-08T05:20:26.626Z,2.08
2018-01-08T05:25:27.949Z,2.07
2018-01-08T05:30:29.242Z,2.01
2018-01-08T05:35:30.552Z,2.14
2018-01-08T05:40:31.863Z,2.13
2018-01-08T05:45:33.902Z,2.12
2018-01-08T05:50:35.268Z,1.93
2018-01-08T05:55:36.580Z,1.83
2018-01-08T06:00:37.974Z,1.82
2018-01-08T06:05:39.275Z,1.80
2018-01-08T06:10:40.608Z,1.80
2018-01-08T06:15:42.700Z,1.79
2018-01-08T06:20:44.024Z,1.62
2018-01-08T06:25:45.359Z,1.72
2018-01-08T06:30:46.794Z,1.49
2018-01-08T06:35:48.121Z,1.58
2018-01-08T06:40:49.448Z,1.51
2018-01-08T06:45:50.747Z,1.49
2018-01-08T06:50:52.804Z,1.47
2018-01-08T06:55:54.123Z,1.36
2018-01-08T07:00:55.451Z,1.37
2018-01-08T07:05:56.758Z,1.43
2018-01-08T07:10:58.097Z,1.39
2018-01-08T07:15:59.418Z,1.44
2018-01-08T07:21:00.744Z,1.48
2018-01-08T07:26:02.061Z,1.35
2018-01-08T07:31:03.376Z,1.26
2018-01-08T07:36:04.723Z,1.33
2018-01-08T07:41:06.051Z,1.41
2018-01-08T07:46:07.356Z,1.30
2018-01-08T07:51:08.680Z,1.33
2018-01-08T07:56:10.017Z,1.25
2018-01-08T08:01:12.109Z,1.28
2018-01-08T08:06:13.569Z,1.42
2018-01-08T08:11:14.878Z,1.40
2018-01-08T08:16:16.225Z,1.45
2018-01-08T08:21:17.596Z,1.47
2018-01-08T08:26:18.920Z,1.55
2018-01-08T08:31:20.244Z,1.53
2018-01-08T08:36:21.570Z,1.44
2018-01-08T08:41:22.887Z,1.52
2018-01-08T08:46:24.214Z,1.61
2018-01-08T08:51:26.266Z,1.54
2018-01-08T08:56:27.574Z,1.58
2018-01-08T09:01:28.919Z,1.73
2018-01-08T09:06:30.215Z,1.77
2018-01-08T09:11:31.561Z,1.82
2018-01-08T09:16:32.966Z,1.76
2018-01-08T09:21:34.294Z,1.82
2018-01-08T09:26:35.823Z,1.98
2018-01-08T09:31:37.152Z,2.04
2018-01-08T09:36:39.256Z,2.21
2018-01-08T09:41:41.310Z,2.37
2018-01-08T09:46:43.108Z,2.36
2018-01-08T09:51:44.674Z,2.51
2018-01-08T09:56:46.129Z,2.58
2018-01-08T10:01:47.660Z,2.59
2018-01-08T10:07:07.373Z,2.79
2018-01-08T10:12:27.777Z,2.80
2018-01-08T10:17:47.551Z,2.69
2018-01-08T10:22:48.880Z,2.74
2018-01-08T10:27:50.213Z,2.83
2018-01-08T10:32:51.598Z,2.93
2018-01-08T10:37:53.666Z,3.25
2018-01-08T10:43:01.023Z,3.32
2018-01-08T10:48:09.277Z,3.33
2018-01-08T10:58:55.437Z,3.52
2018-01-08T11:03:59.435Z,3.43
2018-01-08T11:09:01.524Z,3.52
2018-01-08T11:14:02.880Z,3.76
2018-01-08T11:19:04.286Z,3.73
2018-01-08T11:24:05.622Z,3.90
2018-01-08T11:29:07.004Z,3.99
2018-01-08T11:34:08.500Z,3.83
2018-01-08T11:39:10.610Z,3.90
2018-01-08T11:44:12.688Z,3.95
2018-01-08T11:49:14.087Z,4.09
2018-01-08T11:54:15.408Z,4.20
2018-01-08T11:59:16.757Z,4.07
2018-01-08T12:04:18.183Z,4.12
2018-01-08T12:09:19.504Z,4.33
2018-01-08T12:14:20.882Z,4.37
2018-01-08T12:19:22.311Z,4.68
2018-01-08T12:24:24.475Z,4.70
2018-01-08T12:29:26.338Z,4.83
2018-01-08T12:34:27.799Z,4.67
2018-01-08T12:39:29.168Z,4.79
2018-01-08T12:44:30.536Z,4.73
2018-01-08T12:49:32.662Z,4.60
2018-01-08T12:54:34.008Z,4.71
2018-01-08T12:59:35.376Z,4.54
2018-01-08T13:04:36.721Z,4.56
2018-01-08T13:09:38.068Z,4.42
2018-01-08T13:14:39.439Z,4.55
2018-01-08T13:19:40.806Z,4.49
2018-01-08T13:24:42.141Z,4.56
2018-01-08T13:29:43.599Z,4.60
2018-01-08T13:34:44.943Z,4.62
2018-01-08T13:39:47.024Z,4.54
2018-01-08T13:44:48.432Z,4.66
2018-01-08T13:49:49.802Z,4.64
2018-01-08T13:54:51.155Z,4.77
2018-01-08T13:59:52.493Z,4.67
2018-01-08T14:04:53.846Z,4.60
2018-01-08T14:09:55.199Z,4.56
2018-01-08T14:14:57.302Z,4.64
2018-01-08T14:19:59.392Z,4.58
2018-01-08T14:25:00.771Z,4.48
2018-01-08T14:30:02.208Z,4.32
2018-01-08T14:35:03.556Z,4.32
2018-01-08T14:40:05.068Z,4.26
2018-01-08T14:45:07.208Z,4.35
2018-01-08T14:50:08.555Z,4.44
2018-01-08T14:55:11.680Z,4.27
2018-01-08T15:00:13.048Z,4.25
2018-01-08T15:05:14.501Z,4.24
2018-01-08T15:10:15.949Z,4.21
2018-01-08T15:15:17.319Z,4.10
2018-01-08T15:20:20.610Z,3.87
2018-01-08T15:25:23.043Z,4.03
2018-01-08T15:30:24.389Z,3.96
2018-01-08T15:35:25.707Z,3.85
2018-01-08T15:40:27.032Z,3.66
2018-01-08T15:45:28.380Z,3.71
2018-01-08T15:50:30.489Z,3.69
2018-01-08T15:55:32.706Z,3.73
2018-01-08T16:00:34.079Z,3.91
2018-01-08T16:05:36.210Z,3.84
2018-01-08T16:10:37.589Z,3.82
2018-01-08T16:15:39.658Z,3.66
2018-01-08T16:20:40.987Z,3.69
2018-01-08T16:25:43.043Z,3.72
2018-01-08T16:30:44.374Z,3.80
2018-01-08T16:35:46.434Z,3.70
2018-01-08T16:40:47.776Z,3.59
2018-01-08T16:45:49.094Z,3.74
2018-01-08T16:50:50.410Z,3.58
2018-01-08T16:55:51.745Z,3.57
2018-01-08T17:00:53.095Z,3.69
2018-01-08T17:05:54.410Z,3.61
2018-01-08T17:10:56.476Z,3.49
2018-01-08T17:15:58.159Z,3.48
2018-01-08T17:20:59.521Z,3.49
2018-01-08T17:26:01.633Z,3.58
2018-01-08T17:31:03.211Z,3.56
2018-01-08T17:36:04.573Z,3.49
2018-01-08T17:41:05.931Z,3.29
2018-01-08T17:46:07.290Z,3.34
2018-01-08T17:51:08.627Z,3.22
2018-01-08T17:56:09.946Z,3.22
2018-01-08T18:01:11.352Z,3.14
2018-01-08T18:06:13.466Z,3.22
2018-01-08T18:11:15.290Z,3.17
2018-01-08T18:16:16.616Z,3.21
2018-01-08T18:21:17.966Z,3.18
2018-01-08T18:26:19.661Z,3.22
2018-01-08T18:31:21.840Z,3.13
2018-01-08T18:36:23.241Z,3.28
2018-01-08T18:41:24.974Z,3.27
2018-01-08T18:46:27.056Z,3.22
2018-01-08T18:51:28.443Z,3.19
2018-01-08T18:56:30.143Z,3.23
2018-01-08T19:01:32.589Z,3.26
2018-01-08T19:06:34.084Z,3.12
2018-01-08T19:11:37.217Z,3.16
2018-01-08T19:16:40.271Z,3.14
2018-01-08T19:21:41.656Z,3.14
2018-01-08T19:26:43.491Z,3.10
2018-01-08T19:31:46.306Z,3.12
2018-01-08T19:36:47.899Z,3.17
2018-01-08T19:41:50.120Z,3.16
2018-01-08T19:46:51.493Z,3.08
2018-01-08T19:51:53.420Z,3.09
2018-01-08T19:56:55.257Z,3.05
2018-01-08T20:01:56.596Z,3.10
2018-01-08T20:06:57.992Z,3.13
2018-01-08T20:12:00.132Z,2.99
2018-01-08T20:17:01.468Z,3.04
2018-01-08T20:22:02.823Z,2.93
2018-01-08T20:27:04.208Z,2.95
2018-01-08T20:32:05.557Z,2.98
2018-01-08T20:37:06.925Z,2.99
2018-01-08T20:42:08.304Z,3.06
2018-01-08T20:47:10.557Z,3.07
2018-01-08T20:52:12.634Z,3.13
2018-01-08T20:57:13.982Z,3.04
2018-01-08T21:02:15.349Z,3.06
2018-01-08T21:07:17.430Z,2.95
2018-01-08T21:12:18.762Z,3.03
2018-01-08T21:17:20.084Z,2.92
2018-01-08T21:22:21.427Z,2.96
2018-01-08T21:27:23.496Z,2.94
2018-01-08T21:32:24.847Z,2.85
2018-01-08T21:37:26.174Z,3.04
2018-01-08T21:42:27.512Z,3.12
2018-01-08T21:47:28.840Z,3.05
2018-01-08T21:52:30.192Z,2.91
2018-01-08T21:57:31.522Z,2.83
2018-01-08T22:02:32.952Z,2.80
2018-01-08T22:07:34.359Z,3.05
2018-01-08T22:12:35.757Z,2.90
2018-01-08T22:17:37.103Z,2.89
2018-01-08T22:22:38.448Z,2.99
2018-01-08T22:27:39.867Z,3.26
2018-01-08T22:32:41.219Z,2.96
2018-01-08T22:37:42.534Z,3.06
2018-01-08T22:42:43.939Z,2.97
2018-01-08T22:47:45.286Z,2.99
2018-01-08T22:52:46.662Z,2.94
2018-01-08T22:57:48.704Z,3.01
2018-01-08T23:02:50.064Z,2.90
2018-01-08T23:07:51.359Z,2.80
2018-01-08T23:12:52.735Z,2.77
2018-01-08T23:17:54.804Z,2.88
2018-01-08T23:22:56.160Z,2.86
2018-01-08T23:27:57.510Z,2.69
2018-01-08T23:32:58.896Z,2.78
2018-01-08T23:38:00.220Z,2.75
2018-01-08T23:43:01.615Z,2.94
2018-01-08T23:48:02.920Z,2.80
2018-01-08T23:53:04.253Z,2.76
2018-01-08T23:58:05.662Z,2.73
